Time;durP1;ratioP1;P1;durP2;ratioP2;P2;SDS_P1;SDS_P2;PMS_P1;PMS_P2;Temp;Humidity;BMP_temperature;BMP_pressure;BME280_temperature;BME280_humidity;BME280_pressure;Samples;Min_cycle;Max_cycle;Signal;HPM_P1;HPM_P2
2022/03/17 00:02:09;;;;;;;20.95;14.07;;;7.20;78.90;;;;;;5068964;28;20106;-79
2022/03/17 00:04:35;;;;;;;23.23;14.82;;;7.20;79.20;;;;;;5067906;28;20041;-79
2022/03/17 00:07:01;;;;;;;21.83;14.68;;;7.20;78.90;;;;;;5052183;28;20021;-79
2022/03/17 00:09:26;;;;;;;23.02;13.43;;;7.20;78.70;;;;;;5068569;28;20020;-79
2022/03/17 00:11:52;;;;;;;23.17;14.80;;;7.20;78.70;;;;;;5075609;28;20066;-78
2022/03/17 00:14:18;;;;;;;25.63;15.43;;;7.10;78.90;;;;;;5053374;28;20036;-78
2022/03/17 00:16:44;;;;;;;26.10;16.15;;;7.10;79.00;;;;;;5068722;28;20519;-79
2022/03/17 00:19:09;;;;;;;24.08;15.30;;;7.10;79.10;;;;;;5063057;28;20053;-79
2022/03/17 00:21:36;;;;;;;23.58;14.90;;;7.00;79.30;;;;;;5068945;28;20401;-79
2022/03/17 00:24:03;;;;;;;26.33;16.42;;;7.10;79.40;;;;;;5043213;28;20027;-79
2022/03/17 00:26:29;;;;;;;24.15;14.68;;;7.10;79.00;;;;;;5051022;28;20021;-79
2022/03/17 00:28:55;;;;;;;25.88;15.93;;;7.10;79.10;;;;;;5051247;28;20028;-79
2022/03/17 00:31:21;;;;;;;23.55;15.93;;;7.10;78.80;;;;;;5049545;28;20024;-79
2022/03/17 00:33:46;;;;;;;23.08;15.70;;;7.10;79.00;;;;;;5050110;28;20491;-79
2022/03/17 00:36:12;;;;;;;27.75;16.15;;;7.10;78.90;;;;;;5061006;28;20036;-79
2022/03/17 00:38:37;;;;;;;24.48;15.73;;;7.00;79.10;;;;;;5058784;28;20460;-79
2022/03/17 00:41:03;;;;;;;26.17;16.35;;;7.00;79.10;;;;;;5072114;28;20024;-79
2022/03/17 00:43:29;;;;;;;26.40;16.08;;;7.10;78.90;;;;;;5071722;28;20029;-79
2022/03/17 00:45:54;;;;;;;24.00;16.38;;;7.00;79.00;;;;;;5060595;28;20085;-79
2022/03/17 00:48:20;;;;;;;26.35;15.48;;;6.90;79.30;;;;;;5052568;28;20025;-79
2022/03/17 00:50:46;;;;;;;25.98;17.35;;;7.00;79.30;;;;;;5057076;28;20051;-79
2022/03/17 00:53:11;;;;;;;24.05;15.88;;;7.00;79.00;;;;;;5085504;28;20044;-79
2022/03/17 00:55:37;;;;;;;24.48;15.68;;;6.90;79.20;;;;;;5069557;28;20063;-79
2022/03/17 00:58:02;;;;;;;27.95;17.40;;;7.10;78.80;;;;;;5051975;28;20028;-78
2022/03/17 01:00:28;;;;;;;26.00;17.13;;;7.00;78.90;;;;;;5071102;28;20029;-78
2022/03/17 01:02:55;;;;;;;28.27;17.42;;;7.00;79.10;;;;;;5042678;28;20099;-79
2022/03/17 01:05:22;;;;;;;24.83;16.60;;;6.90;79.20;;;;;;5052636;28;20033;-79
2022/03/17 01:07:49;;;;;;;24.77;16.55;;;7.00;79.20;;;;;;5047960;28;20106;-79
2022/03/17 01:10:16;;;;;;;28.88;17.08;;;7.00;79.40;;;;;;5072364;28;20036;-79
2022/03/17 01:12:44;;;;;;;23.98;16.50;;;6.90;79.40;;;;;;5058560;28;20029;-79
2022/03/17 01:15:10;;;;;;;27.85;17.70;;;7.00;79.30;;;;;;5052659;28;20124;-79
2022/03/17 01:17:35;;;;;;;26.52;17.60;;;7.00;79.30;;;;;;5054726;28;20134;-79
2022/03/17 01:20:01;;;;;;;29.15;18.02;;;6.90;79.60;;;;;;5062803;28;20063;-79
2022/03/17 01:22:27;;;;;;;26.15;16.75;;;7.00;79.80;;;;;;5052631;28;20040;-79
2022/03/17 01:24:52;;;;;;;27.67;16.65;;;7.00;79.60;;;;;;5063813;28;20412;-79
2022/03/17 01:27:20;;;;;;;26.45;16.95;;;6.90;79.70;;;;;;5053703;28;20027;-79
2022/03/17 01:29:47;;;;;;;24.55;16.50;;;6.90;79.70;;;;;;5068488;28;20040;-79
2022/03/17 01:32:13;;;;;;;26.60;17.38;;;6.90;79.90;;;;;;5049601;28;20387;-79
2022/03/17 01:34:38;;;;;;;27.75;17.48;;;6.90;80.00;;;;;;5053649;28;20647;-79
2022/03/17 01:37:04;;;;;;;29.65;19.08;;;6.90;79.90;;;;;;5066610;28;20043;-79
2022/03/17 01:39:30;;;;;;;28.30;17.52;;;6.90;79.80;;;;;;5061612;28;20028;-79
2022/03/17 01:42:02;;;;;;;28.17;17.55;;;6.90;80.00;;;;;;5071931;28;20511;-79
2022/03/17 01:44:27;;;;;;;28.30;18.45;;;7.00;80.00;;;;;;5053227;28;20115;-79
2022/03/17 01:49:38;;;;;;;28.77;18.77;;;6.90;80.00;;;;;;5072436;28;20165;-79
2022/03/17 01:52:04;;;;;;;30.60;19.92;;;7.00;79.80;;;;;;5046208;28;20107;-79
2022/03/17 01:54:29;;;;;;;32.78;19.13;;;7.10;79.40;;;;;;5061805;28;20088;-79
2022/03/17 01:56:55;;;;;;;32.58;18.73;;;7.10;79.40;;;;;;5052775;28;20399;-79
2022/03/17 01:59:22;;;;;;;28.17;19.88;;;7.10;79.60;;;;;;5056665;28;20032;-79
2022/03/17 02:01:49;;;;;;;32.60;20.40;;;7.00;79.70;;;;;;5069329;28;20426;-79
2022/03/17 02:04:14;;;;;;;30.00;18.08;;;7.00;79.90;;;;;;5054114;28;20054;-79
2022/03/17 02:06:42;;;;;;;31.25;21.08;;;7.00;80.10;;;;;;5068066;28;20021;-79
2022/03/17 02:09:07;;;;;;;33.35;20.35;;;7.10;79.70;;;;;;5057898;28;20025;-79
2022/03/17 02:14:25;;;;;;;29.83;18.88;;;7.00;80.10;;;;;;5078781;28;20131;-79
2022/03/17 02:16:51;;;;;;;30.85;19.65;;;7.00;80.00;;;;;;5052258;28;20478;-79
2022/03/17 02:19:21;;;;;;;29.90;19.73;;;7.00;80.20;;;;;;5058168;28;20082;-79
2022/03/17 02:21:48;;;;;;;31.73;20.70;;;7.00;80.20;;;;;;5065815;28;20028;-79
2022/03/17 02:27:02;;;;;;;28.90;19.33;;;7.10;80.10;;;;;;5068770;28;20098;-79
2022/03/17 02:29:30;;;;;;;31.63;20.55;;;7.00;80.20;;;;;;5047145;28;20439;-79
2022/03/17 02:31:56;;;;;;;29.48;18.75;;;7.00;80.50;;;;;;5061599;28;20027;-79
2022/03/17 02:34:22;;;;;;;32.28;20.77;;;6.90;80.60;;;;;;5066264;28;20119;-79
2022/03/17 02:36:50;;;;;;;31.77;19.27;;;7.00;80.60;;;;;;5062230;28;20028;-79
2022/03/17 02:39:19;;;;;;;30.98;21.35;;;7.00;80.40;;;;;;5069322;28;20107;-79
2022/03/17 02:41:45;;;;;;;28.63;18.25;;;7.00;80.30;;;;;;5068241;28;20111;-79
2022/03/17 02:44:11;;;;;;;32.38;20.90;;;7.00;80.60;;;;;;5053983;28;20531;-79
2022/03/17 02:46:37;;;;;;;34.30;21.33;;;7.00;80.50;;;;;;5068806;28;20031;-79
2022/03/17 02:49:03;;;;;;;32.78;20.95;;;7.00;80.80;;;;;;5053232;28;20387;-79
2022/03/17 02:51:29;;;;;;;34.75;21.67;;;6.90;80.90;;;;;;5046908;28;20571;-79
2022/03/17 02:53:54;;;;;;;33.65;21.88;;;7.00;80.90;;;;;;5070436;28;20100;-79
2022/03/17 02:56:20;;;;;;;33.50;22.17;;;7.00;80.90;;;;;;5082464;28;20036;-79
2022/03/17 02:58:46;;;;;;;34.00;21.67;;;7.00;81.20;;;;;;5059267;28;20027;-79
2022/03/17 03:01:11;;;;;;;31.60;21.42;;;7.00;81.10;;;;;;5049809;28;20036;-79
2022/03/17 03:03:37;;;;;;;33.65;22.20;;;6.90;81.20;;;;;;5066192;28;20028;-79
2022/03/17 03:06:02;;;;;;;36.50;21.83;;;6.90;81.40;;;;;;5051221;28;20028;-79
2022/03/17 03:08:29;;;;;;;34.55;21.35;;;6.90;81.60;;;;;;5064415;28;20032;-79
2022/03/17 03:10:56;;;;;;;32.05;21.85;;;6.90;81.40;;;;;;5070332;28;20057;-79
2022/03/17 03:13:22;;;;;;;35.95;22.80;;;6.90;81.40;;;;;;5049673;28;20033;-79
2022/03/17 03:15:50;;;;;;;37.55;23.60;;;6.90;81.60;;;;;;5066749;28;20032;-79
2022/03/17 03:18:16;;;;;;;30.25;20.65;;;6.90;81.70;;;;;;5064900;28;20025;-79
2022/03/17 03:20:41;;;;;;;34.83;22.30;;;6.90;81.60;;;;;;5072330;28;20514;-79
2022/03/17 03:23:07;;;;;;;36.83;23.63;;;6.90;81.70;;;;;;5064571;28;20588;-79
2022/03/17 03:25:32;;;;;;;33.63;22.70;;;6.90;81.70;;;;;;5043470;28;20070;-79
2022/03/17 03:28:07;;;;;;;34.05;23.70;;;6.90;81.70;;;;;;5061285;28;20032;-79
2022/03/17 03:30:33;;;;;;;36.83;22.85;;;6.90;81.80;;;;;;5074374;28;20020;-79
2022/03/17 03:32:58;;;;;;;35.67;23.02;;;6.90;81.80;;;;;;5071844;28;20035;-79
2022/03/17 03:38:08;;;;;;;35.60;22.92;;;6.90;81.90;;;;;;5064693;28;20075;-79
2022/03/17 03:40:34;;;;;;;33.80;23.15;;;6.90;82.00;;;;;;5065486;28;20048;-79
2022/03/17 03:42:59;;;;;;;38.40;23.33;;;6.90;82.20;;;;;;5069482;28;20032;-79
2022/03/17 03:45:26;;;;;;;33.65;24.10;;;6.90;82.20;;;;;;5053002;28;20479;-79
2022/03/17 03:47:52;;;;;;;42.35;24.73;;;6.90;82.10;;;;;;5069942;28;20046;-79
2022/03/17 03:50:18;;;;;;;36.17;23.77;;;6.80;82.10;;;;;;5064267;28;20028;-80
2022/03/17 03:52:43;;;;;;;37.10;24.13;;;6.90;82.20;;;;;;5063641;28;20488;-79
2022/03/17 03:55:10;;;;;;;41.05;25.35;;;6.90;82.30;;;;;;5051225;28;20471;-79
2022/03/17 03:57:35;;;;;;;35.15;23.60;;;6.90;82.20;;;;;;5070257;28;20154;-79
2022/03/17 04:00:09;;;;;;;34.33;22.67;;;6.90;82.10;;;;;;5048510;28;20149;-79
2022/03/17 04:02:34;;;;;;;37.47;23.92;;;7.00;82.00;;;;;;5046621;28;20094;-80
2022/03/17 04:05:00;;;;;;;39.15;25.10;;;6.90;82.20;;;;;;5048335;28;20094;-80
2022/03/17 04:07:25;;;;;;;37.05;23.65;;;7.00;82.00;;;;;;5065930;28;20035;-80
2022/03/17 04:09:51;;;;;;;41.30;24.83;;;7.00;82.00;;;;;;5049803;28;20029;-79
2022/03/17 04:12:16;;;;;;;37.00;24.60;;;7.00;82.10;;;;;;5063757;28;20045;-79
2022/03/17 04:14:42;;;;;;;37.75;23.50;;;7.00;82.00;;;;;;5051178;28;20059;-79
2022/03/17 04:17:08;;;;;;;37.22;24.25;;;7.00;82.10;;;;;;5069765;28;20116;-79
2022/03/17 04:19:33;;;;;;;38.05;24.50;;;7.00;82.20;;;;;;5069869;28;20027;-79
2022/03/17 04:21:59;;;;;;;34.25;24.13;;;7.00;82.20;;;;;;5058430;28;20067;-79
2022/03/17 04:24:24;;;;;;;36.17;24.02;;;7.00;82.10;;;;;;5061854;28;20059;-80
2022/03/17 04:26:50;;;;;;;38.40;25.50;;;7.00;82.00;;;;;;5056029;28;20020;-79
2022/03/17 04:29:16;;;;;;;39.60;24.98;;;7.00;82.10;;;;;;5057933;28;20442;-79
2022/03/17 04:31:43;;;;;;;40.20;26.23;;;7.00;82.10;;;;;;5065977;28;20024;-79
2022/03/17 04:34:09;;;;;;;41.78;26.65;;;7.00;82.00;;;;;;5076302;28;20136;-79
2022/03/17 04:36:35;;;;;;;37.47;25.20;;;7.00;82.00;;;;;;5042169;28;20051;-79
2022/03/17 04:39:02;;;;;;;38.75;26.35;;;7.00;82.10;;;;;;5053334;28;20581;-79
2022/03/17 04:41:28;;;;;;;39.45;25.23;;;7.00;82.10;;;;;;5055960;28;20067;-79
2022/03/17 04:43:54;;;;;;;35.20;24.35;;;7.00;82.00;;;;;;5052383;28;20056;-79
2022/03/17 04:46:20;;;;;;;41.45;26.38;;;7.00;82.00;;;;;;5072735;28;20032;-79
2022/03/17 04:48:46;;;;;;;40.58;25.30;;;7.00;82.10;;;;;;5058104;28;20028;-79
2022/03/17 04:51:11;;;;;;;38.53;25.02;;;7.00;82.00;;;;;;5044686;28;20028;-79
2022/03/17 04:53:37;;;;;;;38.35;24.83;;;7.10;81.90;;;;;;5072905;28;20506;-79
2022/03/17 04:56:04;;;;;;;38.47;25.33;;;7.10;81.80;;;;;;5052082;28;20032;-79
2022/03/17 04:58:31;;;;;;;39.90;26.48;;;7.10;81.70;;;;;;5092471;28;20450;-79
2022/03/17 05:00:58;;;;;;;38.35;26.02;;;7.10;81.70;;;;;;5064523;28;20101;-79
2022/03/17 05:03:24;;;;;;;39.05;26.65;;;7.10;81.70;;;;;;5078228;28;20082;-79
2022/03/17 05:05:50;;;;;;;40.65;27.73;;;7.10;81.80;;;;;;5046572;28;20028;-79
2022/03/17 05:08:16;;;;;;;39.88;25.77;;;7.00;81.80;;;;;;5072573;28;20468;-79
2022/03/17 05:10:43;;;;;;;43.00;26.55;;;7.10;81.80;;;;;;5054269;28;20028;-79
2022/03/17 05:13:10;;;;;;;43.45;26.85;;;7.00;81.90;;;;;;5070640;28;20017;-79
2022/03/17 05:15:37;;;;;;;43.42;25.85;;;7.00;81.90;;;;;;5069999;28;20028;-79
2022/03/17 05:18:07;;;;;;;40.10;27.38;;;7.00;81.90;;;;;;5058221;28;20036;-79
2022/03/17 05:20:34;;;;;;;40.03;27.17;;;7.10;81.80;;;;;;5062821;28;20407;-79
2022/03/17 05:22:59;;;;;;;43.00;26.75;;;7.10;82.00;;;;;;5054350;28;20029;-80
2022/03/17 05:25:25;;;;;;;37.60;25.70;;;7.10;81.90;;;;;;5077264;28;20043;-80
2022/03/17 05:27:51;;;;;;;41.10;27.75;;;7.00;81.90;;;;;;5052426;28;20082;-79
2022/03/17 05:30:17;;;;;;;41.78;27.35;;;7.00;81.90;;;;;;5053735;28;20021;-79
2022/03/17 05:32:44;;;;;;;40.50;27.60;;;7.10;81.80;;;;;;5052523;28;20024;-79
2022/03/17 05:35:11;;;;;;;41.97;28.15;;;7.10;81.80;;;;;;5060756;28;20048;-79
2022/03/17 05:37:37;;;;;;;38.67;27.33;;;7.10;81.90;;;;;;5069891;28;20033;-79
2022/03/17 05:40:05;;;;;;;41.10;28.20;;;7.00;82.10;;;;;;5069185;28;20202;-79
2022/03/17 05:42:31;;;;;;;39.83;25.85;;;7.00;82.10;;;;;;5056641;28;20028;-79
2022/03/17 05:44:57;;;;;;;43.30;28.25;;;7.10;82.10;;;;;;5052996;28;20040;-79
2022/03/17 05:47:23;;;;;;;41.20;27.88;;;7.00;82.10;;;;;;5054980;28;20021;-80
2022/03/17 05:49:48;;;;;;;40.97;26.45;;;7.00;82.20;;;;;;5056877;28;20016;-81
2022/03/17 05:52:14;;;;;;;42.00;27.80;;;7.00;82.30;;;;;;5073278;28;20028;-79
2022/03/17 05:54:40;;;;;;;43.72;28.77;;;7.00;82.20;;;;;;5064442;28;20041;-79
2022/03/17 05:57:06;;;;;;;38.17;26.08;;;7.10;82.00;;;;;;5065670;28;20032;-79
2022/03/17 05:59:31;;;;;;;40.83;27.45;;;7.10;82.10;;;;;;5070415;28;20087;-79
2022/03/17 06:01:58;;;;;;;41.60;27.60;;;7.10;82.10;;;;;;5054625;28;20036;-79
2022/03/17 06:04:23;;;;;;;44.47;28.42;;;7.10;82.20;;;;;;5075038;28;20024;-79
2022/03/17 06:06:49;;;;;;;43.28;27.75;;;7.10;82.20;;;;;;5073421;28;20020;-79
2022/03/17 06:09:15;;;;;;;44.33;28.70;;;7.10;82.20;;;;;;5067517;28;20166;-78
2022/03/17 06:11:41;;;;;;;43.05;28.23;;;7.10;82.20;;;;;;5053084;28;20441;-79
2022/03/17 06:14:07;;;;;;;41.13;28.33;;;7.10;82.20;;;;;;5062593;28;20104;-79
2022/03/17 06:16:33;;;;;;;45.55;28.27;;;7.10;82.20;;;;;;5076774;28;20068;-79
2022/03/17 06:18:58;;;;;;;47.20;29.50;;;7.10;82.20;;;;;;5084924;28;20205;-79
2022/03/17 06:21:24;;;;;;;40.85;27.92;;;7.10;82.00;;;;;;5056198;28;20437;-79
2022/03/17 06:23:50;;;;;;;45.22;28.13;;;7.10;82.20;;;;;;5056583;28;20028;-79
2022/03/17 06:26:15;;;;;;;41.95;28.50;;;7.10;82.20;;;;;;5087016;28;20035;-79
2022/03/17 06:28:41;;;;;;;42.60;28.60;;;7.10;82.00;;;;;;5076516;28;20020;-79
2022/03/17 06:31:07;;;;;;;44.13;28.15;;;7.10;82.00;;;;;;5055279;28;20065;-79
2022/03/17 06:33:32;;;;;;;42.83;27.70;;;7.20;82.10;;;;;;5049235;28;20033;-79
2022/03/17 06:35:58;;;;;;;43.75;27.58;;;7.10;81.90;;;;;;5074183;28;20023;-79
2022/03/17 06:38:23;;;;;;;41.53;28.23;;;7.20;81.90;;;;;;5060292;28;20028;-79
2022/03/17 06:40:49;;;;;;;41.08;27.55;;;7.20;81.90;;;;;;5075168;28;20030;-79
2022/03/17 06:43:14;;;;;;;42.28;28.20;;;7.20;81.80;;;;;;5079949;28;20447;-79
2022/03/17 06:45:40;;;;;;;44.30;28.60;;;7.20;81.70;;;;;;5085850;28;20073;-79
2022/03/17 06:48:06;;;;;;;43.65;27.80;;;7.20;81.70;;;;;;5064729;28;20394;-79
2022/03/17 06:50:32;;;;;;;42.80;27.88;;;7.20;81.70;;;;;;5048579;28;20029;-79
2022/03/17 06:52:57;;;;;;;39.45;27.67;;;7.20;81.70;;;;;;5066687;28;20029;-79
2022/03/17 06:55:23;;;;;;;43.05;28.42;;;7.30;81.60;;;;;;5064187;28;20154;-80
2022/03/17 06:57:49;;;;;;;41.95;28.15;;;7.30;81.60;;;;;;5075639;28;20460;-79
2022/03/17 07:00:16;;;;;;;42.72;28.20;;;7.30;81.50;;;;;;5080624;28;20104;-79
2022/03/17 07:02:42;;;;;;;41.20;27.65;;;7.30;81.40;;;;;;5033043;28;20035;-80
2022/03/17 07:05:08;;;;;;;43.03;25.95;;;7.40;81.40;;;;;;5065690;28;20032;-79
2022/03/17 07:07:34;;;;;;;39.13;28.00;;;7.40;81.40;;;;;;5054843;28;20029;-79
2022/03/17 07:09:59;;;;;;;40.42;26.90;;;7.40;81.10;;;;;;5051688;28;20348;-79
2022/03/17 07:12:25;;;;;;;40.05;26.77;;;7.50;80.90;;;;;;5072696;28;20032;-79
2022/03/17 07:14:51;;;;;;;42.08;27.10;;;7.60;80.90;;;;;;5088452;28;20030;-79
2022/03/17 07:17:20;;;;;;;43.75;28.98;;;7.60;80.10;;;;;;5059899;28;20071;-79
2022/03/17 07:19:59;;;;;;;45.53;28.52;;;7.70;80.00;;;;;;5055671;28;20447;-79
2022/03/17 07:22:25;;;;;;;38.70;27.73;;;7.80;79.70;;;;;;5054257;28;20028;-79
2022/03/17 07:24:51;;;;;;;39.13;25.83;;;7.90;79.50;;;;;;5062174;28;20035;-79
2022/03/17 07:27:17;;;;;;;40.92;27.80;;;8.00;78.80;;;;;;5071918;28;20475;-79
2022/03/17 07:29:44;;;;;;;41.22;27.13;;;8.00;78.50;;;;;;5056166;28;20045;-79
2022/03/17 07:32:10;;;;;;;38.45;25.95;;;8.10;78.30;;;;;;5058097;28;20012;-79
2022/03/17 07:34:35;;;;;;;37.72;25.90;;;8.10;77.90;;;;;;5063484;28;20147;-79
2022/03/17 07:37:01;;;;;;;37.08;25.38;;;8.10;77.80;;;;;;5060366;28;20029;-79
2022/03/17 07:39:26;;;;;;;40.08;26.60;;;8.10;77.60;;;;;;5069644;28;20032;-80
2022/03/17 07:41:52;;;;;;;36.85;25.80;;;8.20;77.60;;;;;;5072092;28;20440;-79
2022/03/17 07:44:17;;;;;;;35.90;24.67;;;8.20;77.60;;;;;;5075555;28;20063;-79
2022/03/17 07:46:43;;;;;;;35.15;25.65;;;8.20;77.50;;;;;;5052238;28;20028;-79
2022/03/17 07:49:08;;;;;;;35.45;25.55;;;8.20;77.60;;;;;;5074233;28;20036;-79
2022/03/17 07:51:35;;;;;;;34.47;25.15;;;8.30;76.40;;;;;;5072423;28;20024;-79
2022/03/17 07:54:01;;;;;;;35.33;25.40;;;8.30;76.50;;;;;;5067661;28;20021;-79
2022/03/17 07:56:27;;;;;;;38.63;26.27;;;8.40;76.30;;;;;;5071007;28;20617;-80
2022/03/17 07:58:52;;;;;;;40.08;26.80;;;8.40;76.10;;;;;;5058915;28;20115;-80
2022/03/17 08:01:18;;;;;;;36.65;25.52;;;8.40;76.20;;;;;;5073220;28;20099;-80
2022/03/17 08:03:44;;;;;;;32.00;23.83;;;8.40;76.20;;;;;;5051351;28;20040;-80
2022/03/17 08:06:12;;;;;;;36.55;25.38;;;8.50;76.10;;;;;;5053767;28;20047;-80
2022/03/17 08:08:38;;;;;;;33.97;24.67;;;8.40;76.20;;;;;;5055990;28;20035;-80
2022/03/17 08:11:03;;;;;;;35.00;24.42;;;8.40;76.00;;;;;;5086684;28;20417;-80
2022/03/17 08:13:29;;;;;;;35.35;24.40;;;8.50;75.50;;;;;;5054538;28;20123;-79
2022/03/17 08:15:54;;;;;;;33.35;24.15;;;8.50;75.40;;;;;;5060885;28;20028;-79
2022/03/17 08:18:20;;;;;;;35.67;25.02;;;8.50;75.50;;;;;;5057644;28;20120;-79
2022/03/17 08:20:46;;;;;;;35.92;25.30;;;8.50;75.50;;;;;;5050584;28;20029;-79
2022/03/17 08:23:15;;;;;;;35.53;24.80;;;8.50;76.00;;;;;;5053441;28;20043;-79
2022/03/17 08:25:41;;;;;;;39.70;24.90;;;8.40;76.90;;;;;;5084620;28;20020;-79
2022/03/17 08:28:08;;;;;;;38.55;27.25;;;8.40;77.40;;;;;;5061518;28;20093;-79
2022/03/17 08:30:34;;;;;;;37.13;25.13;;;8.30;77.70;;;;;;5079408;28;20020;-79
2022/03/17 08:33:00;;;;;;;38.22;26.58;;;8.30;78.00;;;;;;5058319;28;20479;-79
2022/03/17 08:35:27;;;;;;;36.53;25.95;;;8.30;79.10;;;;;;5063798;28;20048;-79
2022/03/17 08:37:53;;;;;;;37.65;26.90;;;8.20;80.20;;;;;;5072917;28;20051;-79
2022/03/17 08:40:19;;;;;;;36.47;26.38;;;8.10;81.10;;;;;;5089830;28;20058;-80
2022/03/17 08:42:44;;;;;;;39.63;27.45;;;8.00;82.00;;;;;;5085887;28;20040;-79
2022/03/17 08:50:40;;;;;;;41.35;28.80;;;7.80;84.30;;;;;;5072418;28;20093;-79
2022/03/17 08:53:06;;;;;;;41.67;28.40;;;7.70;84.80;;;;;;5075280;28;20052;-79
2022/03/17 08:55:31;;;;;;;44.10;29.35;;;7.60;85.10;;;;;;5082632;28;20070;-79
2022/03/17 08:57:57;;;;;;;40.88;29.98;;;7.60;85.30;;;;;;5078696;28;20067;-79
2022/03/17 09:00:23;;;;;;;44.53;31.17;;;7.60;85.90;;;;;;5059167;28;20017;-80
2022/03/17 09:02:49;;;;;;;44.33;30.52;;;7.60;86.20;;;;;;5069875;28;20109;-80
2022/03/17 09:05:15;;;;;;;44.97;29.88;;;7.50;86.70;;;;;;5055959;28;20602;-80
2022/03/17 09:07:40;;;;;;;42.80;30.55;;;7.50;87.20;;;;;;5057118;28;20056;-80
2022/03/17 09:10:06;;;;;;;44.05;31.33;;;7.40;87.50;;;;;;5054705;28;20028;-80
2022/03/17 09:12:33;;;;;;;43.75;30.08;;;7.50;87.70;;;;;;5060238;28;20156;-80
2022/03/17 09:14:59;;;;;;;45.20;31.10;;;7.50;87.90;;;;;;5046372;28;20111;-80
2022/03/17 09:17:25;;;;;;;47.85;30.80;;;7.50;87.90;;;;;;5076941;28;20547;-82
2022/03/17 09:19:50;;;;;;;47.88;29.98;;;7.50;87.80;;;;;;5053487;28;20112;-81
2022/03/17 09:22:16;;;;;;;43.60;31.17;;;7.50;88.30;;;;;;5072474;28;20472;-82
2022/03/17 09:24:41;;;;;;;46.75;31.17;;;7.40;88.50;;;;;;5065384;28;20036;-82
2022/03/17 09:27:07;;;;;;;51.47;33.70;;;7.40;88.90;;;;;;5085296;28;20115;-82
2022/03/17 09:29:33;;;;;;;48.85;32.60;;;7.40;89.20;;;;;;5079106;28;20078;-82
2022/03/17 09:32:00;;;;;;;51.70;34.05;;;7.40;89.50;;;;;;5057920;28;20031;-82
2022/03/17 09:34:26;;;;;;;49.58;33.10;;;7.30;89.90;;;;;;5087136;28;20104;-81
2022/03/17 09:36:52;;;;;;;49.92;31.90;;;7.30;90.10;;;;;;5055421;28;20089;-81
2022/03/17 09:42:03;;;;;;;50.85;33.83;;;7.30;90.50;;;;;;5085165;28;20039;-82
2022/03/17 09:44:29;;;;;;;50.25;34.55;;;7.30;90.80;;;;;;5051595;28;20056;-82
2022/03/17 09:46:58;;;;;;;53.38;34.75;;;7.30;90.90;;;;;;5073511;28;20176;-82
2022/03/17 09:49:25;;;;;;;53.17;35.42;;;7.30;91.00;;;;;;5066230;28;20013;-82
2022/03/17 09:51:54;;;;;;;46.92;33.92;;;7.20;91.20;;;;;;5063817;28;20486;-82
2022/03/17 09:54:20;;;;;;;52.05;35.28;;;7.20;91.40;;;;;;5062376;28;20032;-82
2022/03/17 09:56:45;;;;;;;51.92;34.25;;;7.20;91.60;;;;;;5067820;28;20036;-82
2022/03/17 09:59:11;;;;;;;53.08;35.03;;;7.20;91.70;;;;;;5055532;28;20705;-82
2022/03/17 10:01:37;;;;;;;52.50;36.10;;;7.20;91.90;;;;;;5067675;28;20024;-82
2022/03/17 10:04:04;;;;;;;54.22;36.50;;;7.10;92.10;;;;;;5049781;28;20073;-82
2022/03/17 10:06:30;;;;;;;50.88;35.10;;;7.10;92.20;;;;;;5064176;28;20093;-83
2022/03/17 10:08:57;;;;;;;55.15;36.83;;;7.10;92.40;;;;;;5073007;28;20035;-83
2022/03/17 10:11:31;;;;;;;52.72;36.50;;;7.10;92.50;;;;;;5064201;28;20028;-82
2022/03/17 10:13:59;;;;;;;53.35;35.40;;;7.10;92.60;;;;;;5055061;28;20036;-82
2022/03/17 10:16:26;;;;;;;59.30;37.45;;;7.10;92.70;;;;;;5077034;28;20488;-82
2022/03/17 10:19:05;;;;;;;58.55;38.28;;;7.10;92.80;;;;;;5047245;28;20064;-81
2022/03/17 10:21:32;;;;;;;52.28;34.38;;;7.10;93.00;;;;;;5055145;28;20035;-82
2022/03/17 10:24:04;;;;;;;54.38;36.42;;;7.10;93.10;;;;;;5056978;28;20089;-82
2022/03/17 10:26:37;;;;;;;53.92;36.58;;;7.10;93.20;;;;;;5073387;28;20087;-81
2022/03/17 10:29:04;;;;;;;57.22;37.78;;;7.10;93.40;;;;;;5055265;28;20037;-80
2022/03/17 10:31:29;;;;;;;52.92;34.60;;;7.10;93.40;;;;;;5069530;28;20561;-81
2022/03/17 10:33:55;;;;;;;56.58;36.67;;;7.20;93.60;;;;;;5076422;28;20037;-81
2022/03/17 10:36:21;;;;;;;54.22;34.08;;;7.20;93.70;;;;;;5051215;28;20044;-81
2022/03/17 10:38:48;;;;;;;54.25;35.30;;;7.20;93.80;;;;;;5072069;28;20032;-81
2022/03/17 10:41:15;;;;;;;52.75;35.10;;;7.20;93.90;;;;;;5058022;28;20369;-81
2022/03/17 10:43:42;;;;;;;50.67;31.75;;;7.20;94.00;;;;;;5075156;28;20028;-81
2022/03/17 10:46:12;;;;;;;47.47;30.25;;;7.20;94.20;;;;;;5074522;28;20028;-80
2022/03/17 10:49:01;;;;;;;41.50;27.95;;;7.30;94.20;;;;;;5069987;28;20052;-80
2022/03/17 10:51:32;;;;;;;40.88;26.55;;;7.30;94.20;;;;;;5076469;28;20028;-81
2022/03/17 10:54:06;;;;;;;33.70;23.30;;;7.30;94.20;;;;;;5051605;28;20032;-81
2022/03/17 10:56:33;;;;;;;30.95;20.40;;;7.30;94.00;;;;;;5053163;28;20518;-81
2022/03/17 10:59:00;;;;;;;30.40;19.67;;;7.30;93.90;;;;;;5062089;28;20036;-81
2022/03/17 11:01:46;;;;;;;30.63;19.10;;;7.30;93.80;;;;;;5074883;28;20028;-81
2022/03/17 11:04:12;;;;;;;33.95;18.45;;;7.30;93.80;;;;;;5052440;28;20044;-81
2022/03/17 11:06:39;;;;;;;30.20;17.90;;;7.30;93.80;;;;;;5053547;28;20036;-81
2022/03/17 11:09:08;;;;;;;26.52;16.02;;;7.30;93.70;;;;;;5075089;28;20033;-80
2022/03/17 11:11:37;;;;;;;29.77;16.73;;;7.40;93.40;;;;;;5051044;28;20453;-81
2022/03/17 11:14:04;;;;;;;25.83;15.05;;;7.30;93.10;;;;;;5072367;28;20450;-81
2022/03/17 11:16:43;;;;;;;22.92;14.38;;;7.40;93.10;;;;;;5051447;28;20059;-81
2022/03/17 11:19:13;;;;;;;27.25;13.18;;;7.50;93.00;;;;;;5051880;28;20039;-82
2022/03/17 11:21:45;;;;;;;21.53;12.07;;;7.50;92.90;;;;;;5066648;28;20474;-80
2022/03/17 11:24:21;;;;;;;14.38;10.00;;;7.50;92.20;;;;;;5047628;28;20028;-81
2022/03/17 11:26:47;;;;;;;19.20;10.43;;;7.60;92.20;;;;;;5061529;28;20107;-81
2022/03/17 11:29:18;;;;;;;15.18;10.13;;;7.70;92.10;;;;;;5060846;28;20471;-82
2022/03/17 11:31:58;;;;;;;12.63;8.82;;;7.70;92.00;;;;;;5074039;28;20020;-81
2022/03/17 11:34:47;;;;;;;15.63;9.15;;;7.70;91.50;;;;;;5053833;28;20068;-81
2022/03/17 11:37:18;;;;;;;17.85;8.02;;;7.80;91.70;;;;;;5067350;28;20393;-81
2022/03/17 11:40:03;;;;;;;12.05;6.97;;;7.70;91.40;;;;;;5071039;28;20371;-81
2022/03/17 11:42:33;;;;;;;13.35;6.57;;;7.70;91.10;;;;;;5076754;28;20024;-81
2022/03/17 11:45:09;;;;;;;12.43;5.95;;;7.70;91.10;;;;;;5068611;28;20039;-81
2022/03/17 11:47:49;;;;;;;14.23;5.57;;;7.60;91.00;;;;;;5070261;28;20027;-81
2022/03/17 11:50:26;;;;;;;8.93;4.15;;;7.60;90.60;;;;;;5068955;28;20052;-82
2022/03/17 11:53:00;;;;;;;9.75;3.67;;;7.50;89.50;;;;;;5066311;28;20408;-81
2022/03/17 11:55:36;;;;;;;12.70;4.32;;;7.60;89.80;;;;;;5062021;28;20057;-81
2022/03/17 11:58:23;;;;;;;8.07;3.90;;;7.60;89.90;;;;;;5050336;28;20036;-80
2022/03/17 12:01:00;;;;;;;8.80;3.40;;;7.60;89.70;;;;;;5049229;28;20510;-81
2022/03/17 12:03:42;;;;;;;8.23;2.63;;;7.60;89.40;;;;;;5051034;28;20030;-81
2022/03/17 12:06:19;;;;;;;10.00;2.90;;;7.60;89.10;;;;;;5052351;28;20034;-81
2022/03/17 12:09:00;;;;;;;5.97;1.92;;;7.60;89.10;;;;;;5058789;28;20021;-81
2022/03/17 12:11:41;;;;;;;7.55;2.20;;;7.50;88.50;;;;;;5061609;28;20027;-81
2022/03/17 12:14:10;;;;;;;;;;;7.40;88.40;;;;;;5045096;28;20425;-81
2022/03/17 12:16:41;;;;;;;9.32;2.28;;;7.40;89.10;;;;;;5067447;28;20374;-81
2022/03/17 12:19:07;;;;;;;10.35;2.88;;;7.40;89.40;;;;;;5070562;28;20032;-81
2022/03/17 12:21:57;;;;;;;9.38;2.40;;;7.50;89.80;;;;;;5050337;28;20036;-81
2022/03/17 12:24:45;;;;;;;13.10;2.73;;;7.50;89.80;;;;;;5079175;28;20135;-81
2022/03/17 12:27:22;;;;;;;5.13;2.15;;;7.70;89.90;;;;;;5070944;28;20914;-81
2022/03/17 12:29:54;;;;;;;14.15;2.38;;;7.70;89.60;;;;;;5046325;28;20035;-81
2022/03/17 12:32:22;;;;;;;7.63;2.42;;;7.70;88.90;;;;;;5057706;28;20086;-81
2022/03/17 12:34:55;;;;;;;5.90;1.70;;;7.80;89.10;;;;;;5056255;28;20593;-81
2022/03/17 12:37:26;;;;;;;10.27;2.33;;;7.80;87.90;;;;;;5059918;28;20068;-81
2022/03/17 12:39:53;;;;;;;;;;;7.80;87.40;;;;;;5049853;28;20064;-81
2022/03/17 12:42:23;;;;;;;7.03;1.85;;;7.70;87.30;;;;;;5045940;28;20254;-81
2022/03/17 12:45:01;;;;;;;7.03;2.15;;;7.60;87.30;;;;;;5049375;28;20082;-81
2022/03/17 12:47:29;;;;;;;5.30;1.70;;;7.50;87.40;;;;;;5054044;28;20036;-81
2022/03/17 12:49:56;;;;;;;4.85;1.52;;;7.40;87.30;;;;;;5058629;28;20089;-81
2022/03/17 12:52:25;;;;;;;5.00;1.58;;;7.40;87.90;;;;;;5048197;28;20024;-81
2022/03/17 12:54:56;;;;;;;6.97;2.33;;;7.40;88.10;;;;;;5055553;28;20108;-80
2022/03/17 12:57:23;;;;;;;;;;;7.30;87.40;;;;;;5065771;28;20032;-81
2022/03/17 12:59:49;;;;;;;12.73;2.17;;;7.40;87.60;;;;;;5052599;28;19998;-81
2022/03/17 13:02:17;;;;;;;11.68;2.70;;;7.60;87.80;;;;;;5051554;28;20413;-81